Terminal Aerodrome Forecast
Issued by NWS Albuquerque, NM

Current Version | Previous Version | Text Only | Print | Product List | Glossary On
Versions: 1 2 3 4 5 6 7 8 9 10 11 12 13
000
FTUS45 KABQ 292320
TAFABQ
TAF
KABQ 292320Z 3000/3024 25010KT P6SM VCSH BKN110 BKN150
      TEMPO 3000/3002 VRB23G38KT -SHRA BKN090
     FM300200 36010KT P6SM SCT120
     FM300700 09025G34KT P6SM SCT150
     FM301600 09015G25KT P6SM FEW090
     FM301900 15011KT P6SM FEW050 SCT090=

USA.gov is the U.S. government's official web portal to all federal, state and local government web resources and services.